sensor_id;sensor_type;location;lat;lon;timestamp;P1;durP1;ratioP1;P2;durP2;ratioP2
13122;SDS011;6627;50.920;12.050;2023-09-07T00:02:24;9.60;;;6.07;;
13122;SDS011;6627;50.920;12.050;2023-09-07T00:04:53;7.17;;;5.97;;
13122;SDS011;6627;50.920;12.050;2023-09-07T00:07:20;8.50;;;6.10;;
13122;SDS011;6627;50.920;12.050;2023-09-07T00:09:48;6.87;;;5.93;;
13122;SDS011;6627;50.920;12.050;2023-09-07T00:12:15;7.70;;;6.27;;
13122;SDS011;6627;50.920;12.050;2023-09-07T00:14:44;7.37;;;6.57;;
13122;SDS011;6627;50.920;12.050;2023-09-07T00:17:11;8.30;;;6.17;;
13122;SDS011;6627;50.920;12.050;2023-09-07T00:19:39;6.63;;;5.80;;
13122;SDS011;6627;50.920;12.050;2023-09-07T00:22:06;6.93;;;6.13;;
13122;SDS011;6627;50.920;12.050;2023-09-07T00:24:35;6.73;;;6.03;;
13122;SDS011;6627;50.920;12.050;2023-09-07T00:27:02;10.37;;;6.60;;
13122;SDS011;6627;50.920;12.050;2023-09-07T00:29:52;7.77;;;6.10;;
13122;SDS011;6627;50.920;12.050;2023-09-07T00:32:25;6.97;;;6.20;;
13122;SDS011;6627;50.920;12.050;2023-09-07T00:34:52;8.73;;;6.83;;
13122;SDS011;6627;50.920;12.050;2023-09-07T00:37:20;9.40;;;5.90;;
13122;SDS011;6627;50.920;12.050;2023-09-07T00:39:47;10.80;;;6.43;;
13122;SDS011;6627;50.920;12.050;2023-09-07T00:42:15;8.17;;;6.50;;
13122;SDS011;6627;50.920;12.050;2023-09-07T00:44:42;8.80;;;6.27;;
13122;SDS011;6627;50.920;12.050;2023-09-07T00:47:11;10.50;;;6.90;;
13122;SDS011;6627;50.920;12.050;2023-09-07T00:49:39;7.07;;;6.00;;
13122;SDS011;6627;50.920;12.050;2023-09-07T00:52:06;7.00;;;6.07;;
13122;SDS011;6627;50.920;12.050;2023-09-07T00:54:35;7.77;;;6.80;;
13122;SDS011;6627;50.920;12.050;2023-09-07T00:57:06;6.57;;;5.87;;
13122;SDS011;6627;50.920;12.050;2023-09-07T00:59:39;8.23;;;6.23;;
13122;SDS011;6627;50.920;12.050;2023-09-07T01:02:27;8.70;;;6.80;;
13122;SDS011;6627;50.920;12.050;2023-09-07T01:04:55;7.67;;;6.83;;
13122;SDS011;6627;50.920;12.050;2023-09-07T01:07:23;7.30;;;6.57;;
13122;SDS011;6627;50.920;12.050;2023-09-07T01:09:57;8.47;;;7.00;;
13122;SDS011;6627;50.920;12.050;2023-09-07T01:12:28;8.70;;;6.60;;
13122;SDS011;6627;50.920;12.050;2023-09-07T01:14:56;7.33;;;6.53;;
13122;SDS011;6627;50.920;12.050;2023-09-07T01:17:23;8.00;;;6.83;;
13122;SDS011;6627;50.920;12.050;2023-09-07T01:19:53;7.73;;;6.73;;
13122;SDS011;6627;50.920;12.050;2023-09-07T01:22:26;7.57;;;6.77;;
13122;SDS011;6627;50.920;12.050;2023-09-07T01:24:58;7.10;;;6.40;;
13122;SDS011;6627;50.920;12.050;2023-09-07T01:27:46;6.70;;;6.10;;
13122;SDS011;6627;50.920;12.050;2023-09-07T01:30:16;12.10;;;7.80;;
13122;SDS011;6627;50.920;12.050;2023-09-07T01:32:43;8.87;;;6.67;;
13122;SDS011;6627;50.920;12.050;2023-09-07T01:35:11;6.87;;;6.13;;
13122;SDS011;6627;50.920;12.050;2023-09-07T01:37:45;7.00;;;6.00;;
13122;SDS011;6627;50.920;12.050;2023-09-07T01:40:12;7.27;;;6.50;;
13122;SDS011;6627;50.920;12.050;2023-09-07T01:42:45;7.40;;;6.70;;
13122;SDS011;6627;50.920;12.050;2023-09-07T01:45:12;6.87;;;6.17;;
13122;SDS011;6627;50.920;12.050;2023-09-07T01:47:40;9.70;;;6.83;;
13122;SDS011;6627;50.920;12.050;2023-09-07T01:50:07;8.67;;;6.70;;
13122;SDS011;6627;50.920;12.050;2023-09-07T01:52:56;8.33;;;6.60;;
13122;SDS011;6627;50.920;12.050;2023-09-07T01:55:23;9.27;;;6.77;;
13122;SDS011;6627;50.920;12.050;2023-09-07T01:57:53;7.87;;;6.77;;
13122;SDS011;6627;50.920;12.050;2023-09-07T02:00:20;7.97;;;6.83;;
13122;SDS011;6627;50.920;12.050;2023-09-07T02:02:47;8.33;;;6.57;;
13122;SDS011;6627;50.920;12.050;2023-09-07T02:05:15;7.43;;;6.63;;
13122;SDS011;6627;50.920;12.050;2023-09-07T02:07:43;8.40;;;6.20;;
13122;SDS011;6627;50.920;12.050;2023-09-07T02:10:12;10.37;;;6.60;;
13122;SDS011;6627;50.920;12.050;2023-09-07T02:12:40;8.27;;;6.43;;
13122;SDS011;6627;50.920;12.050;2023-09-07T02:15:08;9.70;;;6.30;;
13122;SDS011;6627;50.920;12.050;2023-09-07T02:17:55;7.47;;;6.47;;
13122;SDS011;6627;50.920;12.050;2023-09-07T02:20:42;6.93;;;6.10;;
13122;SDS011;6627;50.920;12.050;2023-09-07T02:23:10;7.13;;;6.30;;
13122;SDS011;6627;50.920;12.050;2023-09-07T02:25:38;7.00;;;6.30;;
13122;SDS011;6627;50.920;12.050;2023-09-07T02:28:07;7.90;;;6.30;;
13122;SDS011;6627;50.920;12.050;2023-09-07T02:30:35;8.63;;;6.37;;
13122;SDS011;6627;50.920;12.050;2023-09-07T02:33:02;9.03;;;6.40;;
13122;SDS011;6627;50.920;12.050;2023-09-07T02:35:30;6.57;;;5.77;;
13122;SDS011;6627;50.920;12.050;2023-09-07T02:37:58;7.17;;;6.23;;
13122;SDS011;6627;50.920;12.050;2023-09-07T02:40:26;7.10;;;6.40;;
13122;SDS011;6627;50.920;12.050;2023-09-07T02:42:54;8.43;;;6.63;;
13122;SDS011;6627;50.920;12.050;2023-09-07T02:45:22;8.30;;;6.27;;
13122;SDS011;6627;50.920;12.050;2023-09-07T02:47:49;7.97;;;6.90;;
13122;SDS011;6627;50.920;12.050;2023-09-07T02:50:17;7.20;;;6.00;;
13122;SDS011;6627;50.920;12.050;2023-09-07T02:52:45;7.63;;;6.63;;
13122;SDS011;6627;50.920;12.050;2023-09-07T02:55:12;6.73;;;6.03;;
13122;SDS011;6627;50.920;12.050;2023-09-07T02:57:41;9.40;;;6.83;;
13122;SDS011;6627;50.920;12.050;2023-09-07T03:00:10;8.63;;;7.03;;
13122;SDS011;6627;50.920;12.050;2023-09-07T03:02:38;9.57;;;6.87;;
13122;SDS011;6627;50.920;12.050;2023-09-07T03:05:06;9.67;;;6.80;;
13122;SDS011;6627;50.920;12.050;2023-09-07T03:07:34;10.77;;;7.03;;
13122;SDS011;6627;50.920;12.050;2023-09-07T03:10:02;7.10;;;6.40;;
13122;SDS011;6627;50.920;12.050;2023-09-07T03:12:30;7.47;;;6.77;;
13122;SDS011;6627;50.920;12.050;2023-09-07T03:14:57;8.20;;;7.13;;
13122;SDS011;6627;50.920;12.050;2023-09-07T03:17:30;8.03;;;6.77;;
13122;SDS011;6627;50.920;12.050;2023-09-07T03:19:58;7.73;;;6.80;;
13122;SDS011;6627;50.920;12.050;2023-09-07T03:22:25;9.03;;;6.90;;
13122;SDS011;6627;50.920;12.050;2023-09-07T03:31:06;7.47;;;6.23;;
13122;SDS011;6627;50.920;12.050;2023-09-07T03:33:35;7.87;;;6.60;;
13122;SDS011;6627;50.920;12.050;2023-09-07T03:36:02;11.30;;;6.50;;
13122;SDS011;6627;50.920;12.050;2023-09-07T03:38:30;8.67;;;7.10;;
13122;SDS011;6627;50.920;12.050;2023-09-07T03:41:17;7.17;;;6.17;;
13122;SDS011;6627;50.920;12.050;2023-09-07T03:43:44;8.23;;;7.00;;
13122;SDS011;6627;50.920;12.050;2023-09-07T03:46:11;8.90;;;6.90;;
13122;SDS011;6627;50.920;12.050;2023-09-07T03:48:40;8.57;;;6.50;;
13122;SDS011;6627;50.920;12.050;2023-09-07T03:51:07;8.17;;;6.63;;
13122;SDS011;6627;50.920;12.050;2023-09-07T03:53:35;7.20;;;6.50;;
13122;SDS011;6627;50.920;12.050;2023-09-07T03:56:02;7.33;;;6.47;;
13122;SDS011;6627;50.920;12.050;2023-09-07T03:58:30;8.57;;;6.60;;
13122;SDS011;6627;50.920;12.050;2023-09-07T04:00:58;7.83;;;7.03;;
13122;SDS011;6627;50.920;12.050;2023-09-07T04:03:26;9.17;;;6.67;;
13122;SDS011;6627;50.920;12.050;2023-09-07T04:05:54;7.13;;;6.43;;
13122;SDS011;6627;50.920;12.050;2023-09-07T04:08:22;6.80;;;6.17;;
13122;SDS011;6627;50.920;12.050;2023-09-07T04:10:49;6.93;;;6.23;;
13122;SDS011;6627;50.920;12.050;2023-09-07T04:13:16;7.87;;;6.33;;
13122;SDS011;6627;50.920;12.050;2023-09-07T04:15:44;9.20;;;6.73;;
13122;SDS011;6627;50.920;12.050;2023-09-07T04:18:12;7.90;;;6.60;;
13122;SDS011;6627;50.920;12.050;2023-09-07T04:20:42;10.07;;;6.23;;
13122;SDS011;6627;50.920;12.050;2023-09-07T04:23:11;9.20;;;6.93;;
13122;SDS011;6627;50.920;12.050;2023-09-07T04:25:38;8.60;;;7.03;;
13122;SDS011;6627;50.920;12.050;2023-09-07T04:28:05;7.80;;;7.00;;
13122;SDS011;6627;50.920;12.050;2023-09-07T04:30:36;8.17;;;7.10;;
13122;SDS011;6627;50.920;12.050;2023-09-07T04:33:04;8.53;;;7.10;;
13122;SDS011;6627;50.920;12.050;2023-09-07T04:35:32;7.93;;;7.03;;
13122;SDS011;6627;50.920;12.050;2023-09-07T04:38:00;8.50;;;7.53;;
13122;SDS011;6627;50.920;12.050;2023-09-07T04:40:29;7.80;;;6.97;;
13122;SDS011;6627;50.920;12.050;2023-09-07T04:42:56;9.57;;;7.30;;
13122;SDS011;6627;50.920;12.050;2023-09-07T04:45:23;9.03;;;7.20;;
13122;SDS011;6627;50.920;12.050;2023-09-07T04:47:51;11.23;;;7.47;;
13122;SDS011;6627;50.920;12.050;2023-09-07T04:50:18;10.53;;;7.60;;
13122;SDS011;6627;50.920;12.050;2023-09-07T04:52:46;9.70;;;7.70;;
13122;SDS011;6627;50.920;12.050;2023-09-07T04:55:13;10.90;;;7.87;;
13122;SDS011;6627;50.920;12.050;2023-09-07T04:57:42;10.60;;;7.77;;
13122;SDS011;6627;50.920;12.050;2023-09-07T05:00:10;10.37;;;8.40;;
13122;SDS011;6627;50.920;12.050;2023-09-07T05:02:38;10.93;;;8.67;;
13122;SDS011;6627;50.920;12.050;2023-09-07T05:05:08;12.63;;;7.80;;
13122;SDS011;6627;50.920;12.050;2023-09-07T05:07:36;9.67;;;8.67;;
13122;SDS011;6627;50.920;12.050;2023-09-07T05:10:03;12.43;;;9.10;;
13122;SDS011;6627;50.920;12.050;2023-09-07T05:12:35;15.23;;;8.00;;
13122;SDS011;6627;50.920;12.050;2023-09-07T05:15:04;13.17;;;8.23;;
13122;SDS011;6627;50.920;12.050;2023-09-07T05:17:33;11.43;;;8.00;;
13122;SDS011;6627;50.920;12.050;2023-09-07T05:20:01;8.33;;;7.20;;
13122;SDS011;6627;50.920;12.050;2023-09-07T05:22:44;8.70;;;7.50;;
13122;SDS011;6627;50.920;12.050;2023-09-07T05:25:11;11.70;;;7.70;;
13122;SDS011;6627;50.920;12.050;2023-09-07T05:27:41;8.43;;;7.30;;
13122;SDS011;6627;50.920;12.050;2023-09-07T05:30:11;11.57;;;7.20;;
13122;SDS011;6627;50.920;12.050;2023-09-07T05:32:39;8.73;;;7.17;;
13122;SDS011;6627;50.920;12.050;2023-09-07T05:35:07;10.57;;;7.77;;
13122;SDS011;6627;50.920;12.050;2023-09-07T05:37:36;13.43;;;8.40;;
13122;SDS011;6627;50.920;12.050;2023-09-07T05:40:03;14.07;;;7.73;;
13122;SDS011;6627;50.920;12.050;2023-09-07T05:42:33;17.67;;;8.10;;
13122;SDS011;6627;50.920;12.050;2023-09-07T05:45:00;11.97;;;7.43;;
13122;SDS011;6627;50.920;12.050;2023-09-07T05:47:30;10.20;;;7.33;;
13122;SDS011;6627;50.920;12.050;2023-09-07T05:49:57;13.73;;;7.30;;
13122;SDS011;6627;50.920;12.050;2023-09-07T05:52:25;8.20;;;7.40;;
13122;SDS011;6627;50.920;12.050;2023-09-07T05:54:52;10.80;;;7.57;;
13122;SDS011;6627;50.920;12.050;2023-09-07T05:57:20;15.37;;;8.13;;
13122;SDS011;6627;50.920;12.050;2023-09-07T05:59:48;16.27;;;8.47;;
13122;SDS011;6627;50.920;12.050;2023-09-07T06:02:15;12.87;;;7.90;;
13122;SDS011;6627;50.920;12.050;2023-09-07T06:04:44;12.33;;;8.77;;
13122;SDS011;6627;50.920;12.050;2023-09-07T06:07:12;9.23;;;8.20;;
13122;SDS011;6627;50.920;12.050;2023-09-07T06:09:39;11.20;;;8.03;;
13122;SDS011;6627;50.920;12.050;2023-09-07T06:12:07;11.47;;;8.40;;
13122;SDS011;6627;50.920;12.050;2023-09-07T06:14:34;11.97;;;9.27;;
13122;SDS011;6627;50.920;12.050;2023-09-07T06:17:02;14.50;;;8.87;;
13122;SDS011;6627;50.920;12.050;2023-09-07T06:19:30;13.00;;;9.53;;
13122;SDS011;6627;50.920;12.050;2023-09-07T06:22:00;11.37;;;9.03;;
13122;SDS011;6627;50.920;12.050;2023-09-07T06:24:28;13.87;;;9.03;;
13122;SDS011;6627;50.920;12.050;2023-09-07T06:26:55;14.57;;;9.00;;
13122;SDS011;6627;50.920;12.050;2023-09-07T06:29:23;10.40;;;8.60;;
13122;SDS011;6627;50.920;12.050;2023-09-07T06:31:50;11.57;;;7.90;;
13122;SDS011;6627;50.920;12.050;2023-09-07T06:34:17;15.43;;;9.07;;
13122;SDS011;6627;50.920;12.050;2023-09-07T06:36:46;12.40;;;8.30;;
13122;SDS011;6627;50.920;12.050;2023-09-07T06:39:15;10.00;;;8.27;;
13122;SDS011;6627;50.920;12.050;2023-09-07T06:41:45;9.90;;;7.97;;
13122;SDS011;6627;50.920;12.050;2023-09-07T06:44:13;9.13;;;8.23;;
13122;SDS011;6627;50.920;12.050;2023-09-07T06:46:40;10.50;;;8.03;;
13122;SDS011;6627;50.920;12.050;2023-09-07T06:49:08;10.80;;;7.93;;
13122;SDS011;6627;50.920;12.050;2023-09-07T06:51:36;11.27;;;8.23;;
13122;SDS011;6627;50.920;12.050;2023-09-07T06:54:04;10.47;;;7.90;;
13122;SDS011;6627;50.920;12.050;2023-09-07T06:56:33;14.47;;;8.60;;
13122;SDS011;6627;50.920;12.050;2023-09-07T06:59:01;12.70;;;8.67;;
13122;SDS011;6627;50.920;12.050;2023-09-07T07:01:30;11.13;;;8.00;;
13122;SDS011;6627;50.920;12.050;2023-09-07T07:03:58;13.07;;;8.80;;
13122;SDS011;6627;50.920;12.050;2023-09-07T07:06:27;16.67;;;8.93;;
13122;SDS011;6627;50.920;12.050;2023-09-07T07:08:55;20.80;;;8.90;;
13122;SDS011;6627;50.920;12.050;2023-09-07T07:11:23;9.70;;;7.83;;
13122;SDS011;6627;50.920;12.050;2023-09-07T07:13:52;18.50;;;8.63;;
13122;SDS011;6627;50.920;12.050;2023-09-07T07:16:19;13.47;;;8.73;;
13122;SDS011;6627;50.920;12.050;2023-09-07T07:18:46;15.77;;;9.30;;
13122;SDS011;6627;50.920;12.050;2023-09-07T07:21:13;19.30;;;8.23;;
13122;SDS011;6627;50.920;12.050;2023-09-07T07:23:41;13.93;;;8.30;;
13122;SDS011;6627;50.920;12.050;2023-09-07T07:26:08;15.47;;;8.57;;
13122;SDS011;6627;50.920;12.050;2023-09-07T07:28:36;16.30;;;8.80;;
13122;SDS011;6627;50.920;12.050;2023-09-07T07:31:08;13.17;;;7.67;;
13122;SDS011;6627;50.920;12.050;2023-09-07T07:33:36;9.87;;;8.50;;
13122;SDS011;6627;50.920;12.050;2023-09-07T07:36:04;13.57;;;8.30;;
13122;SDS011;6627;50.920;12.050;2023-09-07T07:38:32;13.53;;;8.57;;
13122;SDS011;6627;50.920;12.050;2023-09-07T07:41:00;10.10;;;7.97;;
13122;SDS011;6627;50.920;12.050;2023-09-07T07:43:29;12.43;;;8.07;;
13122;SDS011;6627;50.920;12.050;2023-09-07T07:46:00;12.53;;;7.60;;
13122;SDS011;6627;50.920;12.050;2023-09-07T07:48:32;10.00;;;7.60;;
13122;SDS011;6627;50.920;12.050;2023-09-07T07:51:02;11.93;;;7.60;;
13122;SDS011;6627;50.920;12.050;2023-09-07T07:53:30;13.93;;;7.67;;
13122;SDS011;6627;50.920;12.050;2023-09-07T07:55:58;12.43;;;6.90;;
13122;SDS011;6627;50.920;12.050;2023-09-07T07:58:26;9.83;;;7.40;;
13122;SDS011;6627;50.920;12.050;2023-09-07T08:00:53;15.93;;;7.60;;
13122;SDS011;6627;50.920;12.050;2023-09-07T08:03:23;15.87;;;7.37;;
13122;SDS011;6627;50.920;12.050;2023-09-07T08:05:52;11.70;;;7.53;;
13122;SDS011;6627;50.920;12.050;2023-09-07T08:08:19;17.07;;;7.17;;
13122;SDS011;6627;50.920;12.050;2023-09-07T08:10:47;10.80;;;6.97;;
13122;SDS011;6627;50.920;12.050;2023-09-07T08:13:14;12.77;;;6.77;;
13122;SDS011;6627;50.920;12.050;2023-09-07T08:15:42;14.47;;;7.20;;
13122;SDS011;6627;50.920;12.050;2023-09-07T08:18:10;18.67;;;7.40;;
13122;SDS011;6627;50.920;12.050;2023-09-07T08:20:39;13.03;;;7.20;;
13122;SDS011;6627;50.920;12.050;2023-09-07T08:23:08;11.83;;;8.20;;
13122;SDS011;6627;50.920;12.050;2023-09-07T08:25:38;12.97;;;7.40;;
13122;SDS011;6627;50.920;12.050;2023-09-07T08:28:10;14.53;;;7.40;;
13122;SDS011;6627;50.920;12.050;2023-09-07T08:30:40;14.13;;;7.43;;
13122;SDS011;6627;50.920;12.050;2023-09-07T08:33:09;13.50;;;7.23;;
13122;SDS011;6627;50.920;12.050;2023-09-07T08:35:37;12.87;;;7.47;;
13122;SDS011;6627;50.920;12.050;2023-09-07T08:38:10;11.77;;;6.90;;
13122;SDS011;6627;50.920;12.050;2023-09-07T08:40:38;17.00;;;6.67;;
13122;SDS011;6627;50.920;12.050;2023-09-07T08:43:08;12.63;;;6.40;;
13122;SDS011;6627;50.920;12.050;2023-09-07T08:45:40;13.47;;;6.50;;
13122;SDS011;6627;50.920;12.050;2023-09-07T08:48:15;12.63;;;6.67;;
13122;SDS011;6627;50.920;12.050;2023-09-07T08:50:46;10.00;;;6.27;;
13122;SDS011;6627;50.920;12.050;2023-09-07T08:53:17;12.43;;;6.20;;
13122;SDS011;6627;50.920;12.050;2023-09-07T08:55:47;11.93;;;6.10;;
13122;SDS011;6627;50.920;12.050;2023-09-07T08:58:15;10.37;;;5.77;;
13122;SDS011;6627;50.920;12.050;2023-09-07T09:00:44;9.53;;;6.03;;
13122;SDS011;6627;50.920;12.050;2023-09-07T09:03:11;10.23;;;6.20;;
13122;SDS011;6627;50.920;12.050;2023-09-07T09:05:39;7.50;;;5.63;;
13122;SDS011;6627;50.920;12.050;2023-09-07T09:08:07;7.83;;;5.03;;
13122;SDS011;6627;50.920;12.050;2023-09-07T09:10:38;11.73;;;5.67;;
13122;SDS011;6627;50.920;12.050;2023-09-07T09:13:07;8.53;;;5.50;;
13122;SDS011;6627;50.920;12.050;2023-09-07T09:15:36;8.63;;;5.23;;
13122;SDS011;6627;50.920;12.050;2023-09-07T09:18:09;11.07;;;4.53;;
13122;SDS011;6627;50.920;12.050;2023-09-07T09:20:39;8.43;;;5.07;;
13122;SDS011;6627;50.920;12.050;2023-09-07T09:23:06;6.20;;;4.73;;
13122;SDS011;6627;50.920;12.050;2023-09-07T09:25:34;6.93;;;5.23;;
13122;SDS011;6627;50.920;12.050;2023-09-07T09:28:04;6.87;;;4.97;;
13122;SDS011;6627;50.920;12.050;2023-09-07T09:30:32;10.50;;;4.80;;
13122;SDS011;6627;50.920;12.050;2023-09-07T09:32:59;6.27;;;4.30;;
13122;SDS011;6627;50.920;12.050;2023-09-07T09:35:28;4.37;;;3.67;;
13122;SDS011;6627;50.920;12.050;2023-09-07T09:37:56;4.30;;;3.90;;
13122;SDS011;6627;50.920;12.050;2023-09-07T09:40:31;7.90;;;4.60;;
13122;SDS011;6627;50.920;12.050;2023-09-07T09:43:01;5.93;;;3.70;;
13122;SDS011;6627;50.920;12.050;2023-09-07T09:45:32;5.17;;;4.27;;
13122;SDS011;6627;50.920;12.050;2023-09-07T09:48:01;4.83;;;4.23;;
13122;SDS011;6627;50.920;12.050;2023-09-07T09:50:37;4.70;;;3.97;;
13122;SDS011;6627;50.920;12.050;2023-09-07T09:53:08;5.27;;;3.90;;
13122;SDS011;6627;50.920;12.050;2023-09-07T09:55:40;5.40;;;3.93;;
13122;SDS011;6627;50.920;12.050;2023-09-07T09:58:08;6.17;;;3.60;;
13122;SDS011;6627;50.920;12.050;2023-09-07T10:00:37;4.77;;;4.20;;
13122;SDS011;6627;50.920;12.050;2023-09-07T10:03:05;4.47;;;3.50;;
13122;SDS011;6627;50.920;12.050;2023-09-07T10:05:39;4.33;;;3.47;;
13122;SDS011;6627;50.920;12.050;2023-09-07T10:08:08;4.10;;;3.70;;
13122;SDS011;6627;50.920;12.050;2023-09-07T10:10:40;3.87;;;3.47;;
13122;SDS011;6627;50.920;12.050;2023-09-07T10:13:12;5.07;;;3.63;;
13122;SDS011;6627;50.920;12.050;2023-09-07T10:15:41;4.00;;;3.60;;
13122;SDS011;6627;50.920;12.050;2023-09-07T10:18:09;3.67;;;3.37;;
13122;SDS011;6627;50.920;12.050;2023-09-07T10:20:48;4.00;;;3.37;;
13122;SDS011;6627;50.920;12.050;2023-09-07T10:23:18;4.90;;;3.70;;
13122;SDS011;6627;50.920;12.050;2023-09-07T10:25:50;3.50;;;3.20;;
13122;SDS011;6627;50.920;12.050;2023-09-07T10:28:21;4.38;;;3.42;;
13122;SDS011;6627;50.920;12.050;2023-09-07T10:31:02;5.10;;;3.77;;
13122;SDS011;6627;50.920;12.050;2023-09-07T10:33:52;8.10;;;3.37;;
13122;SDS011;6627;50.920;12.050;2023-09-07T10:36:20;4.10;;;3.20;;
13122;SDS011;6627;50.920;12.050;2023-09-07T10:38:48;4.00;;;3.00;;
13122;SDS011;6627;50.920;12.050;2023-09-07T10:41:18;4.38;;;3.40;;
13122;SDS011;6627;50.920;12.050;2023-09-07T10:43:49;3.80;;;3.33;;
13122;SDS011;6627;50.920;12.050;2023-09-07T10:46:35;3.83;;;3.30;;
13122;SDS011;6627;50.920;12.050;2023-09-07T10:49:06;3.90;;;3.40;;
13122;SDS011;6627;50.920;12.050;2023-09-07T10:51:41;4.27;;;3.47;;
13122;SDS011;6627;50.920;12.050;2023-09-07T10:54:16;3.73;;;3.33;;
13122;SDS011;6627;50.920;12.050;2023-09-07T10:56:46;6.10;;;3.50;;
13122;SDS011;6627;50.920;12.050;2023-09-07T10:59:16;4.13;;;3.40;;
13122;SDS011;6627;50.920;12.050;2023-09-07T11:01:44;4.43;;;3.53;;
13122;SDS011;6627;50.920;12.050;2023-09-07T11:04:12;5.53;;;3.20;;
13122;SDS011;6627;50.920;12.050;2023-09-07T11:06:41;3.72;;;3.28;;
13122;SDS011;6627;50.920;12.050;2023-09-07T11:09:09;4.20;;;3.80;;
13122;SDS011;6627;50.920;12.050;2023-09-07T11:11:37;3.78;;;3.40;;
13122;SDS011;6627;50.920;12.050;2023-09-07T11:14:05;3.63;;;3.17;;
13122;SDS011;6627;50.920;12.050;2023-09-07T11:16:35;4.90;;;3.72;;
13122;SDS011;6627;50.920;12.050;2023-09-07T11:19:08;3.75;;;3.45;;
13122;SDS011;6627;50.920;12.050;2023-09-07T11:21:35;6.18;;;3.80;;
13122;SDS011;6627;50.920;12.050;2023-09-07T11:24:03;3.35;;;3.05;;
13122;SDS011;6627;50.920;12.050;2023-09-07T11:26:40;5.57;;;3.35;;
13122;SDS011;6627;50.920;12.050;2023-09-07T11:29:13;4.30;;;3.70;;
13122;SDS011;6627;50.920;12.050;2023-09-07T11:31:43;3.72;;;3.30;;
13122;SDS011;6627;50.920;12.050;2023-09-07T11:34:13;4.18;;;3.63;;
13122;SDS011;6627;50.920;12.050;2023-09-07T11:36:44;4.90;;;3.45;;
13122;SDS011;6627;50.920;12.050;2023-09-07T11:39:15;5.45;;;3.30;;
13122;SDS011;6627;50.920;12.050;2023-09-07T11:41:44;4.03;;;3.63;;
13122;SDS011;6627;50.920;12.050;2023-09-07T11:44:11;5.10;;;3.50;;
13122;SDS011;6627;50.920;12.050;2023-09-07T11:46:43;4.78;;;3.50;;
13122;SDS011;6627;50.920;12.050;2023-09-07T11:49:10;4.05;;;3.65;;
13122;SDS011;6627;50.920;12.050;2023-09-07T11:51:39;4.70;;;3.53;;
13122;SDS011;6627;50.920;12.050;2023-09-07T11:54:06;4.22;;;3.65;;
13122;SDS011;6627;50.920;12.050;2023-09-07T11:56:33;7.65;;;3.78;;
13122;SDS011;6627;50.920;12.050;2023-09-07T11:59:05;3.67;;;3.22;;
13122;SDS011;6627;50.920;12.050;2023-09-07T12:01:34;4.65;;;3.10;;
13122;SDS011;6627;50.920;12.050;2023-09-07T12:04:03;3.78;;;2.92;;
13122;SDS011;6627;50.920;12.050;2023-09-07T12:06:33;3.92;;;3.03;;
13122;SDS011;6627;50.920;12.050;2023-09-07T12:09:02;4.75;;;3.15;;
13122;SDS011;6627;50.920;12.050;2023-09-07T12:11:33;4.80;;;2.95;;
13122;SDS011;6627;50.920;12.050;2023-09-07T12:14:01;3.45;;;2.72;;
13122;SDS011;6627;50.920;12.050;2023-09-07T12:16:30;4.90;;;3.00;;
13122;SDS011;6627;50.920;12.050;2023-09-07T12:18:58;7.40;;;2.85;;
13122;SDS011;6627;50.920;12.050;2023-09-07T12:21:30;4.28;;;3.10;;
13122;SDS011;6627;50.920;12.050;2023-09-07T12:24:00;3.53;;;3.00;;
13122;SDS011;6627;50.920;12.050;2023-09-07T12:26:28;3.40;;;3.10;;
13122;SDS011;6627;50.920;12.050;2023-09-07T12:28:56;3.42;;;2.95;;
13122;SDS011;6627;50.920;12.050;2023-09-07T12:31:23;3.65;;;3.20;;
13122;SDS011;6627;50.920;12.050;2023-09-07T12:33:51;5.55;;;2.83;;
13122;SDS011;6627;50.920;12.050;2023-09-07T12:36:19;3.88;;;2.78;;
13122;SDS011;6627;50.920;12.050;2023-09-07T12:38:48;2.90;;;2.60;;
13122;SDS011;6627;50.920;12.050;2023-09-07T12:41:16;2.90;;;2.70;;
13122;SDS011;6627;50.920;12.050;2023-09-07T12:43:43;3.35;;;2.58;;
13122;SDS011;6627;50.920;12.050;2023-09-07T12:46:11;4.38;;;2.70;;
13122;SDS011;6627;50.920;12.050;2023-09-07T12:48:39;5.80;;;2.85;;
13122;SDS011;6627;50.920;12.050;2023-09-07T12:51:07;5.28;;;3.10;;
13122;SDS011;6627;50.920;12.050;2023-09-07T12:53:34;2.97;;;2.78;;
13122;SDS011;6627;50.920;12.050;2023-09-07T12:56:03;3.25;;;2.95;;
13122;SDS011;6627;50.920;12.050;2023-09-07T12:58:31;4.57;;;2.70;;
13122;SDS011;6627;50.920;12.050;2023-09-07T13:00:58;4.32;;;3.03;;
13122;SDS011;6627;50.920;12.050;2023-09-07T13:03:26;6.30;;;2.70;;
13122;SDS011;6627;50.920;12.050;2023-09-07T13:05:53;4.97;;;2.90;;
13122;SDS011;6627;50.920;12.050;2023-09-07T13:08:21;2.90;;;2.60;;
13122;SDS011;6627;50.920;12.050;2023-09-07T13:10:49;2.85;;;2.55;;
13122;SDS011;6627;50.920;12.050;2023-09-07T13:13:20;3.40;;;2.47;;
13122;SDS011;6627;50.920;12.050;2023-09-07T13:15:50;2.60;;;2.30;;
13122;SDS011;6627;50.920;12.050;2023-09-07T13:18:18;2.65;;;2.45;;
13122;SDS011;6627;50.920;12.050;2023-09-07T13:20:46;3.28;;;2.47;;
13122;SDS011;6627;50.920;12.050;2023-09-07T13:23:15;3.15;;;2.85;;
13122;SDS011;6627;50.920;12.050;2023-09-07T13:25:43;3.78;;;2.63;;
13122;SDS011;6627;50.920;12.050;2023-09-07T13:28:11;2.50;;;2.28;;
13122;SDS011;6627;50.920;12.050;2023-09-07T13:30:40;3.38;;;2.83;;
13122;SDS011;6627;50.920;12.050;2023-09-07T13:33:15;3.25;;;2.50;;
13122;SDS011;6627;50.920;12.050;2023-09-07T13:35:43;3.53;;;2.40;;
13122;SDS011;6627;50.920;12.050;2023-09-07T13:38:12;2.92;;;2.53;;
13122;SDS011;6627;50.920;12.050;2023-09-07T13:40:39;3.55;;;2.75;;
13122;SDS011;6627;50.920;12.050;2023-09-07T13:43:08;3.83;;;3.10;;
13122;SDS011;6627;50.920;12.050;2023-09-07T13:45:35;3.70;;;2.92;;
13122;SDS011;6627;50.920;12.050;2023-09-07T13:48:04;2.90;;;2.60;;
13122;SDS011;6627;50.920;12.050;2023-09-07T13:50:33;4.43;;;2.70;;
13122;SDS011;6627;50.920;12.050;2023-09-07T13:53:00;2.95;;;2.42;;
13122;SDS011;6627;50.920;12.050;2023-09-07T13:55:28;3.75;;;2.67;;
13122;SDS011;6627;50.920;12.050;2023-09-07T13:57:55;5.45;;;2.78;;
13122;SDS011;6627;50.920;12.050;2023-09-07T14:00:23;4.47;;;2.70;;
13122;SDS011;6627;50.920;12.050;2023-09-07T14:02:51;6.97;;;2.78;;
13122;SDS011;6627;50.920;12.050;2023-09-07T14:05:21;4.03;;;2.60;;
13122;SDS011;6627;50.920;12.050;2023-09-07T14:07:48;2.85;;;2.47;;
13122;SDS011;6627;50.920;12.050;2023-09-07T14:10:15;6.85;;;2.47;;
13122;SDS011;6627;50.920;12.050;2023-09-07T14:12:44;2.80;;;2.60;;
13122;SDS011;6627;50.920;12.050;2023-09-07T14:15:14;2.72;;;2.40;;
13122;SDS011;6627;50.920;12.050;2023-09-07T14:17:42;3.17;;;2.42;;
13122;SDS011;6627;50.920;12.050;2023-09-07T14:20:11;2.72;;;2.45;;
13122;SDS011;6627;50.920;12.050;2023-09-07T14:22:40;4.03;;;2.72;;
13122;SDS011;6627;50.920;12.050;2023-09-07T14:25:16;3.22;;;2.72;;
13122;SDS011;6627;50.920;12.050;2023-09-07T14:27:44;4.30;;;2.58;;
13122;SDS011;6627;50.920;12.050;2023-09-07T14:30:12;3.55;;;2.50;;
13122;SDS011;6627;50.920;12.050;2023-09-07T14:32:39;5.15;;;2.80;;
13122;SDS011;6627;50.920;12.050;2023-09-07T14:35:07;4.00;;;2.35;;
13122;SDS011;6627;50.920;12.050;2023-09-07T14:37:35;3.72;;;2.20;;
13122;SDS011;6627;50.920;12.050;2023-09-07T14:40:05;2.50;;;2.30;;
13122;SDS011;6627;50.920;12.050;2023-09-07T14:42:34;3.17;;;2.17;;
13122;SDS011;6627;50.920;12.050;2023-09-07T14:45:03;3.13;;;2.30;;
13122;SDS011;6627;50.920;12.050;2023-09-07T14:47:33;3.47;;;2.83;;
13122;SDS011;6627;50.920;12.050;2023-09-07T14:50:01;3.22;;;2.47;;
13122;SDS011;6627;50.920;12.050;2023-09-07T14:52:29;3.97;;;2.50;;
13122;SDS011;6627;50.920;12.050;2023-09-07T14:54:57;3.33;;;2.80;;
13122;SDS011;6627;50.920;12.050;2023-09-07T14:57:26;2.65;;;2.45;;
13122;SDS011;6627;50.920;12.050;2023-09-07T14:59:54;2.65;;;2.42;;
13122;SDS011;6627;50.920;12.050;2023-09-07T15:02:21;4.95;;;2.80;;